sensor_id;sensor_type;location;lat;lon;timestamp;P1;durP1;ratioP1;P2;durP2;ratioP2
45326;SDS011;31062;49.678;24.560;2023-04-08T00:02:17;30.67;;;14.95;;
45326;SDS011;31062;49.678;24.560;2023-04-08T00:05:02;27.88;;;14.25;;
45326;SDS011;31062;49.678;24.560;2023-04-08T00:07:48;22.15;;;13.18;;
45326;SDS011;31062;49.678;24.560;2023-04-08T00:10:34;32.55;;;16.73;;
45326;SDS011;31062;49.678;24.560;2023-04-08T00:13:19;31.85;;;15.32;;
45326;SDS011;31062;49.678;24.560;2023-04-08T00:16:05;26.10;;;12.93;;
45326;SDS011;31062;49.678;24.560;2023-04-08T00:18:51;19.92;;;12.02;;
45326;SDS011;31062;49.678;24.560;2023-04-08T00:21:37;19.45;;;12.27;;
45326;SDS011;31062;49.678;24.560;2023-04-08T00:24:22;19.60;;;11.15;;
45326;SDS011;31062;49.678;24.560;2023-04-08T00:27:08;22.27;;;11.95;;
45326;SDS011;31062;49.678;24.560;2023-04-08T00:29:54;22.77;;;11.18;;
45326;SDS011;31062;49.678;24.560;2023-04-08T00:32:39;18.67;;;11.05;;
45326;SDS011;31062;49.678;24.560;2023-04-08T00:35:25;19.83;;;10.50;;
45326;SDS011;31062;49.678;24.560;2023-04-08T00:38:10;17.40;;;9.25;;
45326;SDS011;31062;49.678;24.560;2023-04-08T00:40:56;12.13;;;8.52;;
45326;SDS011;31062;49.678;24.560;2023-04-08T00:43:42;15.52;;;9.30;;
45326;SDS011;31062;49.678;24.560;2023-04-08T00:46:29;13.73;;;9.05;;
45326;SDS011;31062;49.678;24.560;2023-04-08T00:49:15;15.30;;;9.63;;
45326;SDS011;31062;49.678;24.560;2023-04-08T00:52:02;22.02;;;12.35;;
45326;SDS011;31062;49.678;24.560;2023-04-08T00:54:47;22.67;;;12.75;;
45326;SDS011;31062;49.678;24.560;2023-04-08T00:57:33;22.23;;;13.38;;
45326;SDS011;31062;49.678;24.560;2023-04-08T01:00:19;23.85;;;12.77;;
45326;SDS011;31062;49.678;24.560;2023-04-08T01:03:12;19.17;;;11.57;;
45326;SDS011;31062;49.678;24.560;2023-04-08T01:06:09;15.23;;;10.63;;
45326;SDS011;31062;49.678;24.560;2023-04-08T01:09:00;20.65;;;10.90;;
45326;SDS011;31062;49.678;24.560;2023-04-08T01:11:50;16.10;;;10.30;;
45326;SDS011;31062;49.678;24.560;2023-04-08T01:14:38;16.00;;;10.25;;
45326;SDS011;31062;49.678;24.560;2023-04-08T01:17:28;16.20;;;9.38;;
45326;SDS011;31062;49.678;24.560;2023-04-08T01:20:15;24.23;;;12.35;;
45326;SDS011;31062;49.678;24.560;2023-04-08T01:26:10;13.45;;;8.57;;
45326;SDS011;31062;49.678;24.560;2023-04-08T01:28:58;17.08;;;10.23;;
45326;SDS011;31062;49.678;24.560;2023-04-08T01:31:45;15.75;;;9.73;;
45326;SDS011;31062;49.678;24.560;2023-04-08T01:34:32;17.13;;;10.82;;
45326;SDS011;31062;49.678;24.560;2023-04-08T01:37:19;19.30;;;11.30;;
45326;SDS011;31062;49.678;24.560;2023-04-08T01:40:06;16.58;;;9.25;;
45326;SDS011;31062;49.678;24.560;2023-04-08T01:42:55;16.23;;;9.93;;
45326;SDS011;31062;49.678;24.560;2023-04-08T01:45:45;12.57;;;9.35;;
45326;SDS011;31062;49.678;24.560;2023-04-08T01:48:33;11.68;;;8.25;;
45326;SDS011;31062;49.678;24.560;2023-04-08T01:51:21;14.88;;;9.25;;
45326;SDS011;31062;49.678;24.560;2023-04-08T01:54:07;12.38;;;8.95;;
45326;SDS011;31062;49.678;24.560;2023-04-08T01:56:53;14.20;;;9.07;;
45326;SDS011;31062;49.678;24.560;2023-04-08T01:59:41;13.48;;;9.68;;
45326;SDS011;31062;49.678;24.560;2023-04-08T02:02:29;13.93;;;8.73;;
45326;SDS011;31062;49.678;24.560;2023-04-08T02:05:17;13.38;;;8.65;;
45326;SDS011;31062;49.678;24.560;2023-04-08T02:08:02;15.55;;;8.88;;
45326;SDS011;31062;49.678;24.560;2023-04-08T02:10:48;14.95;;;9.32;;
45326;SDS011;31062;49.678;24.560;2023-04-08T02:13:34;18.35;;;9.85;;
45326;SDS011;31062;49.678;24.560;2023-04-08T02:16:25;15.68;;;10.00;;
45326;SDS011;31062;49.678;24.560;2023-04-08T02:19:39;13.73;;;9.18;;
45326;SDS011;31062;49.678;24.560;2023-04-08T02:25:25;12.65;;;8.45;;
45326;SDS011;31062;49.678;24.560;2023-04-08T02:28:16;11.13;;;8.43;;
45326;SDS011;31062;49.678;24.560;2023-04-08T02:31:03;12.32;;;8.50;;
45326;SDS011;31062;49.678;24.560;2023-04-08T02:33:52;23.77;;;13.00;;
45326;SDS011;31062;49.678;24.560;2023-04-08T02:36:40;27.45;;;15.63;;
45326;SDS011;31062;49.678;24.560;2023-04-08T02:39:33;25.33;;;13.55;;
45326;SDS011;31062;49.678;24.560;2023-04-08T02:45:05;15.45;;;9.73;;
45326;SDS011;31062;49.678;24.560;2023-04-08T02:47:51;14.27;;;9.50;;
45326;SDS011;31062;49.678;24.560;2023-04-08T02:50:37;14.32;;;9.48;;
45326;SDS011;31062;49.678;24.560;2023-04-08T02:53:24;13.52;;;8.63;;
45326;SDS011;31062;49.678;24.560;2023-04-08T02:56:10;13.25;;;8.45;;
45326;SDS011;31062;49.678;24.560;2023-04-08T02:58:56;14.65;;;8.90;;
45326;SDS011;31062;49.678;24.560;2023-04-08T03:01:42;15.75;;;9.82;;
45326;SDS011;31062;49.678;24.560;2023-04-08T03:04:28;13.23;;;8.88;;
45326;SDS011;31062;49.678;24.560;2023-04-08T03:07:13;13.68;;;8.80;;
45326;SDS011;31062;49.678;24.560;2023-04-08T03:09:59;13.70;;;8.60;;
45326;SDS011;31062;49.678;24.560;2023-04-08T03:12:45;14.95;;;9.93;;
45326;SDS011;31062;49.678;24.560;2023-04-08T03:15:33;16.60;;;10.15;;
45326;SDS011;31062;49.678;24.560;2023-04-08T03:18:31;20.83;;;11.10;;
45326;SDS011;31062;49.678;24.560;2023-04-08T03:21:17;16.50;;;10.02;;
45326;SDS011;31062;49.678;24.560;2023-04-08T03:24:03;16.35;;;9.63;;
45326;SDS011;31062;49.678;24.560;2023-04-08T03:26:49;14.82;;;10.27;;
45326;SDS011;31062;49.678;24.560;2023-04-08T03:29:35;17.10;;;10.93;;
45326;SDS011;31062;49.678;24.560;2023-04-08T03:32:21;20.75;;;11.85;;
45326;SDS011;31062;49.678;24.560;2023-04-08T03:35:07;22.63;;;11.25;;
45326;SDS011;31062;49.678;24.560;2023-04-08T03:37:53;17.60;;;10.35;;
45326;SDS011;31062;49.678;24.560;2023-04-08T03:40:39;18.23;;;10.07;;
45326;SDS011;31062;49.678;24.560;2023-04-08T03:43:25;19.58;;;10.40;;
45326;SDS011;31062;49.678;24.560;2023-04-08T03:46:11;23.60;;;12.82;;
45326;SDS011;31062;49.678;24.560;2023-04-08T03:48:57;19.92;;;11.88;;
45326;SDS011;31062;49.678;24.560;2023-04-08T03:51:42;17.92;;;10.73;;
45326;SDS011;31062;49.678;24.560;2023-04-08T03:54:28;15.50;;;10.13;;
45326;SDS011;31062;49.678;24.560;2023-04-08T03:57:14;23.58;;;11.75;;
45326;SDS011;31062;49.678;24.560;2023-04-08T04:00:00;77.53;;;22.60;;
45326;SDS011;31062;49.678;24.560;2023-04-08T04:02:56;82.80;;;24.65;;
45326;SDS011;31062;49.678;24.560;2023-04-08T04:05:42;61.45;;;22.23;;
45326;SDS011;31062;49.678;24.560;2023-04-08T04:08:27;72.82;;;24.90;;
45326;SDS011;31062;49.678;24.560;2023-04-08T04:11:13;138.90;;;47.95;;
45326;SDS011;31062;49.678;24.560;2023-04-08T04:13:59;51.03;;;21.15;;
45326;SDS011;31062;49.678;24.560;2023-04-08T04:16:45;20.05;;;12.15;;
45326;SDS011;31062;49.678;24.560;2023-04-08T04:19:30;19.30;;;10.68;;
45326;SDS011;31062;49.678;24.560;2023-04-08T04:22:17;15.73;;;9.90;;
45326;SDS011;31062;49.678;24.560;2023-04-08T04:25:03;15.90;;;9.73;;
45326;SDS011;31062;49.678;24.560;2023-04-08T04:27:49;19.38;;;10.60;;
45326;SDS011;31062;49.678;24.560;2023-04-08T04:30:36;13.63;;;9.90;;
45326;SDS011;31062;49.678;24.560;2023-04-08T04:33:23;16.23;;;10.40;;
45326;SDS011;31062;49.678;24.560;2023-04-08T04:36:09;17.75;;;11.07;;
45326;SDS011;31062;49.678;24.560;2023-04-08T04:38:55;18.17;;;10.32;;
45326;SDS011;31062;49.678;24.560;2023-04-08T04:41:41;23.00;;;13.77;;
45326;SDS011;31062;49.678;24.560;2023-04-08T04:44:28;16.98;;;10.35;;
45326;SDS011;31062;49.678;24.560;2023-04-08T04:47:14;14.35;;;10.02;;
45326;SDS011;31062;49.678;24.560;2023-04-08T04:50:00;21.33;;;11.52;;
45326;SDS011;31062;49.678;24.560;2023-04-08T04:52:46;21.75;;;12.75;;
45326;SDS011;31062;49.678;24.560;2023-04-08T04:55:32;19.58;;;12.95;;
45326;SDS011;31062;49.678;24.560;2023-04-08T04:58:18;18.08;;;10.35;;
45326;SDS011;31062;49.678;24.560;2023-04-08T05:01:04;23.80;;;13.73;;
45326;SDS011;31062;49.678;24.560;2023-04-08T05:03:50;18.80;;;10.73;;
45326;SDS011;31062;49.678;24.560;2023-04-08T05:06:36;15.32;;;9.60;;
45326;SDS011;31062;49.678;24.560;2023-04-08T05:09:22;16.85;;;10.80;;
45326;SDS011;31062;49.678;24.560;2023-04-08T05:12:09;20.02;;;10.80;;
45326;SDS011;31062;49.678;24.560;2023-04-08T05:14:57;17.90;;;10.75;;
45326;SDS011;31062;49.678;24.560;2023-04-08T05:17:44;23.02;;;13.20;;
45326;SDS011;31062;49.678;24.560;2023-04-08T05:20:29;29.00;;;15.30;;
45326;SDS011;31062;49.678;24.560;2023-04-08T05:23:16;65.22;;;30.20;;
45326;SDS011;31062;49.678;24.560;2023-04-08T05:26:05;38.70;;;18.25;;
45326;SDS011;31062;49.678;24.560;2023-04-08T05:28:51;21.00;;;13.38;;
45326;SDS011;31062;49.678;24.560;2023-04-08T05:31:37;19.90;;;11.23;;
45326;SDS011;31062;49.678;24.560;2023-04-08T05:34:23;17.42;;;11.30;;
45326;SDS011;31062;49.678;24.560;2023-04-08T05:37:10;38.67;;;16.30;;
45326;SDS011;31062;49.678;24.560;2023-04-08T05:39:56;29.98;;;14.75;;
45326;SDS011;31062;49.678;24.560;2023-04-08T05:42:42;30.40;;;13.73;;
45326;SDS011;31062;49.678;24.560;2023-04-08T05:45:28;30.33;;;16.55;;
45326;SDS011;31062;49.678;24.560;2023-04-08T05:48:14;19.27;;;11.60;;
45326;SDS011;31062;49.678;24.560;2023-04-08T05:51:01;21.25;;;11.63;;
45326;SDS011;31062;49.678;24.560;2023-04-08T05:53:47;22.02;;;13.48;;
45326;SDS011;31062;49.678;24.560;2023-04-08T05:56:33;19.98;;;12.55;;
45326;SDS011;31062;49.678;24.560;2023-04-08T05:59:19;21.65;;;12.77;;
45326;SDS011;31062;49.678;24.560;2023-04-08T06:02:05;23.48;;;13.10;;
45326;SDS011;31062;49.678;24.560;2023-04-08T06:04:51;28.00;;;16.02;;
45326;SDS011;31062;49.678;24.560;2023-04-08T06:07:39;31.67;;;16.88;;
45326;SDS011;31062;49.678;24.560;2023-04-08T06:10:24;28.92;;;16.50;;
45326;SDS011;31062;49.678;24.560;2023-04-08T06:13:10;28.15;;;15.85;;
45326;SDS011;31062;49.678;24.560;2023-04-08T06:15:55;26.60;;;17.02;;
45326;SDS011;31062;49.678;24.560;2023-04-08T06:18:42;40.22;;;19.27;;
45326;SDS011;31062;49.678;24.560;2023-04-08T06:21:28;46.83;;;22.00;;
45326;SDS011;31062;49.678;24.560;2023-04-08T06:24:15;37.90;;;19.80;;
45326;SDS011;31062;49.678;24.560;2023-04-08T06:27:01;40.25;;;19.23;;
45326;SDS011;31062;49.678;24.560;2023-04-08T06:29:48;31.42;;;17.40;;
45326;SDS011;31062;49.678;24.560;2023-04-08T06:32:35;31.95;;;16.55;;
45326;SDS011;31062;49.678;24.560;2023-04-08T06:35:21;27.85;;;16.08;;
45326;SDS011;31062;49.678;24.560;2023-04-08T06:38:09;19.27;;;12.40;;
45326;SDS011;31062;49.678;24.560;2023-04-08T06:40:55;22.08;;;13.20;;
45326;SDS011;31062;49.678;24.560;2023-04-08T06:43:41;20.88;;;12.93;;
45326;SDS011;31062;49.678;24.560;2023-04-08T06:46:29;32.05;;;14.43;;
45326;SDS011;31062;49.678;24.560;2023-04-08T06:49:17;23.00;;;12.57;;
45326;SDS011;31062;49.678;24.560;2023-04-08T06:52:03;19.42;;;11.50;;
45326;SDS011;31062;49.678;24.560;2023-04-08T06:54:51;27.63;;;13.68;;
45326;SDS011;31062;49.678;24.560;2023-04-08T06:57:37;26.67;;;13.38;;
45326;SDS011;31062;49.678;24.560;2023-04-08T07:00:23;18.80;;;11.40;;
45326;SDS011;31062;49.678;24.560;2023-04-08T07:03:09;23.00;;;13.18;;
45326;SDS011;31062;49.678;24.560;2023-04-08T07:05:57;19.88;;;11.43;;
45326;SDS011;31062;49.678;24.560;2023-04-08T07:08:43;18.65;;;11.02;;
45326;SDS011;31062;49.678;24.560;2023-04-08T07:11:30;18.65;;;10.68;;
45326;SDS011;31062;49.678;24.560;2023-04-08T07:14:15;20.90;;;11.77;;
45326;SDS011;31062;49.678;24.560;2023-04-08T07:17:01;21.38;;;11.73;;
45326;SDS011;31062;49.678;24.560;2023-04-08T07:19:47;21.00;;;12.32;;
45326;SDS011;31062;49.678;24.560;2023-04-08T07:22:33;21.90;;;12.40;;
45326;SDS011;31062;49.678;24.560;2023-04-08T07:25:19;22.35;;;11.50;;
45326;SDS011;31062;49.678;24.560;2023-04-08T07:28:05;24.73;;;11.80;;
45326;SDS011;31062;49.678;24.560;2023-04-08T07:30:51;21.88;;;11.82;;
45326;SDS011;31062;49.678;24.560;2023-04-08T07:33:37;20.95;;;11.60;;
45326;SDS011;31062;49.678;24.560;2023-04-08T07:36:22;18.77;;;11.35;;
45326;SDS011;31062;49.678;24.560;2023-04-08T07:39:08;16.75;;;11.32;;
45326;SDS011;31062;49.678;24.560;2023-04-08T07:41:54;18.00;;;11.35;;
45326;SDS011;31062;49.678;24.560;2023-04-08T07:44:40;17.17;;;11.25;;
45326;SDS011;31062;49.678;24.560;2023-04-08T07:47:25;19.92;;;10.27;;
45326;SDS011;31062;49.678;24.560;2023-04-08T07:50:12;19.30;;;11.02;;
45326;SDS011;31062;49.678;24.560;2023-04-08T07:52:58;17.23;;;10.73;;
45326;SDS011;31062;49.678;24.560;2023-04-08T07:55:44;18.77;;;10.82;;
45326;SDS011;31062;49.678;24.560;2023-04-08T07:58:29;19.67;;;11.63;;
45326;SDS011;31062;49.678;24.560;2023-04-08T08:01:17;26.15;;;15.07;;
45326;SDS011;31062;49.678;24.560;2023-04-08T08:04:04;27.77;;;15.30;;
45326;SDS011;31062;49.678;24.560;2023-04-08T08:06:50;35.33;;;19.23;;
45326;SDS011;31062;49.678;24.560;2023-04-08T08:09:36;30.55;;;16.02;;
45326;SDS011;31062;49.678;24.560;2023-04-08T08:12:21;27.40;;;15.45;;
45326;SDS011;31062;49.678;24.560;2023-04-08T08:15:07;30.17;;;17.08;;
45326;SDS011;31062;49.678;24.560;2023-04-08T08:17:53;30.67;;;16.10;;
45326;SDS011;31062;49.678;24.560;2023-04-08T08:20:40;37.38;;;17.77;;
45326;SDS011;31062;49.678;24.560;2023-04-08T08:23:25;25.70;;;15.07;;
45326;SDS011;31062;49.678;24.560;2023-04-08T08:26:11;35.38;;;19.10;;
45326;SDS011;31062;49.678;24.560;2023-04-08T08:28:57;24.75;;;16.10;;
45326;SDS011;31062;49.678;24.560;2023-04-08T08:31:43;26.48;;;14.80;;
45326;SDS011;31062;49.678;24.560;2023-04-08T08:34:29;39.75;;;22.35;;
45326;SDS011;31062;49.678;24.560;2023-04-08T08:37:16;33.42;;;17.35;;
45326;SDS011;31062;49.678;24.560;2023-04-08T08:40:02;26.98;;;16.30;;
45326;SDS011;31062;49.678;24.560;2023-04-08T08:42:50;30.13;;;15.27;;
45326;SDS011;31062;49.678;24.560;2023-04-08T08:45:40;33.65;;;17.50;;
45326;SDS011;31062;49.678;24.560;2023-04-08T08:48:27;39.60;;;19.88;;
45326;SDS011;31062;49.678;24.560;2023-04-08T08:51:13;126.90;;;53.20;;
45326;SDS011;31062;49.678;24.560;2023-04-08T08:54:01;89.45;;;38.85;;
45326;SDS011;31062;49.678;24.560;2023-04-08T08:56:49;73.15;;;32.70;;
45326;SDS011;31062;49.678;24.560;2023-04-08T08:59:35;34.92;;;19.40;;
45326;SDS011;31062;49.678;24.560;2023-04-08T09:02:29;28.58;;;15.98;;
45326;SDS011;31062;49.678;24.560;2023-04-08T09:05:19;24.95;;;15.30;;
45326;SDS011;31062;49.678;24.560;2023-04-08T09:08:05;21.55;;;13.23;;
45326;SDS011;31062;49.678;24.560;2023-04-08T09:14:02;24.42;;;14.13;;
45326;SDS011;31062;49.678;24.560;2023-04-08T09:16:48;27.92;;;15.50;;
45326;SDS011;31062;49.678;24.560;2023-04-08T09:19:36;24.60;;;15.05;;
45326;SDS011;31062;49.678;24.560;2023-04-08T09:22:22;17.95;;;11.48;;
45326;SDS011;31062;49.678;24.560;2023-04-08T09:25:21;17.77;;;12.45;;
45326;SDS011;31062;49.678;24.560;2023-04-08T09:28:17;23.00;;;13.43;;
45326;SDS011;31062;49.678;24.560;2023-04-08T09:31:21;16.00;;;11.30;;
45326;SDS011;31062;49.678;24.560;2023-04-08T09:34:13;17.92;;;10.48;;
45326;SDS011;31062;49.678;24.560;2023-04-08T09:37:01;28.08;;;16.67;;
45326;SDS011;31062;49.678;24.560;2023-04-08T09:39:49;17.45;;;10.43;;
45326;SDS011;31062;49.678;24.560;2023-04-08T09:42:35;12.63;;;9.43;;
45326;SDS011;31062;49.678;24.560;2023-04-08T09:45:25;14.88;;;10.60;;
45326;SDS011;31062;49.678;24.560;2023-04-08T09:48:16;13.65;;;9.40;;
45326;SDS011;31062;49.678;24.560;2023-04-08T09:51:14;15.43;;;10.85;;
45326;SDS011;31062;49.678;24.560;2023-04-08T09:54:02;17.65;;;11.40;;
45326;SDS011;31062;49.678;24.560;2023-04-08T09:56:59;15.13;;;10.52;;
45326;SDS011;31062;49.678;24.560;2023-04-08T09:59:51;18.27;;;11.30;;
45326;SDS011;31062;49.678;24.560;2023-04-08T10:05:45;14.05;;;9.82;;
45326;SDS011;31062;49.678;24.560;2023-04-08T10:08:32;20.65;;;11.93;;
45326;SDS011;31062;49.678;24.560;2023-04-08T10:11:19;15.63;;;10.82;;
45326;SDS011;31062;49.678;24.560;2023-04-08T10:14:05;17.75;;;10.75;;
45326;SDS011;31062;49.678;24.560;2023-04-08T10:23:19;17.45;;;13.07;;
45326;SDS011;31062;49.678;24.560;2023-04-08T10:32:38;15.55;;;10.50;;
45326;SDS011;31062;49.678;24.560;2023-04-08T10:35:28;17.73;;;11.32;;
45326;SDS011;31062;49.678;24.560;2023-04-08T10:38:19;12.73;;;9.52;;
45326;SDS011;31062;49.678;24.560;2023-04-08T10:41:05;14.70;;;10.32;;
45326;SDS011;31062;49.678;24.560;2023-04-08T10:43:51;12.40;;;9.63;;
45326;SDS011;31062;49.678;24.560;2023-04-08T10:46:37;14.15;;;10.80;;
45326;SDS011;31062;49.678;24.560;2023-04-08T10:49:28;15.18;;;10.32;;
45326;SDS011;31062;49.678;24.560;2023-04-08T10:52:17;15.60;;;11.40;;
45326;SDS011;31062;49.678;24.560;2023-04-08T10:55:04;15.05;;;9.88;;
45326;SDS011;31062;49.678;24.560;2023-04-08T10:57:51;11.35;;;8.90;;
45326;SDS011;31062;49.678;24.560;2023-04-08T11:00:38;11.68;;;9.70;;
45326;SDS011;31062;49.678;24.560;2023-04-08T11:03:24;13.23;;;9.30;;
45326;SDS011;31062;49.678;24.560;2023-04-08T11:06:12;14.93;;;11.45;;
45326;SDS011;31062;49.678;24.560;2023-04-08T11:09:01;12.05;;;9.05;;
45326;SDS011;31062;49.678;24.560;2023-04-08T11:11:48;12.25;;;9.00;;
45326;SDS011;31062;49.678;24.560;2023-04-08T11:14:36;13.82;;;9.98;;
45326;SDS011;31062;49.678;24.560;2023-04-08T11:17:25;41.47;;;19.45;;
45326;SDS011;31062;49.678;24.560;2023-04-08T11:20:11;15.50;;;10.48;;
45326;SDS011;31062;49.678;24.560;2023-04-08T11:22:59;23.25;;;15.27;;
45326;SDS011;31062;49.678;24.560;2023-04-08T11:25:45;15.52;;;9.77;;
45326;SDS011;31062;49.678;24.560;2023-04-08T11:28:32;20.20;;;13.45;;
45326;SDS011;31062;49.678;24.560;2023-04-08T11:31:20;19.23;;;12.77;;
45326;SDS011;31062;49.678;24.560;2023-04-08T11:34:09;16.55;;;11.65;;
45326;SDS011;31062;49.678;24.560;2023-04-08T11:36:55;20.98;;;17.40;;
45326;SDS011;31062;49.678;24.560;2023-04-08T11:39:44;12.27;;;10.98;;
45326;SDS011;31062;49.678;24.560;2023-04-08T11:42:31;29.90;;;21.50;;
45326;SDS011;31062;49.678;24.560;2023-04-08T11:45:19;11.55;;;9.52;;
45326;SDS011;31062;49.678;24.560;2023-04-08T11:48:12;19.98;;;11.77;;
45326;SDS011;31062;49.678;24.560;2023-04-08T11:51:02;15.75;;;11.63;;
45326;SDS011;31062;49.678;24.560;2023-04-08T11:53:55;16.52;;;10.65;;
45326;SDS011;31062;49.678;24.560;2023-04-08T11:56:44;10.73;;;8.20;;
45326;SDS011;31062;49.678;24.560;2023-04-08T11:59:35;10.98;;;9.57;;
45326;SDS011;31062;49.678;24.560;2023-04-08T12:02:21;13.05;;;9.63;;
45326;SDS011;31062;49.678;24.560;2023-04-08T12:05:07;11.95;;;8.82;;
45326;SDS011;31062;49.678;24.560;2023-04-08T12:07:53;27.92;;;17.27;;
45326;SDS011;31062;49.678;24.560;2023-04-08T12:10:39;11.63;;;8.60;;
45326;SDS011;31062;49.678;24.560;2023-04-08T12:13:25;8.90;;;7.15;;
45326;SDS011;31062;49.678;24.560;2023-04-08T12:16:11;9.45;;;8.20;;
45326;SDS011;31062;49.678;24.560;2023-04-08T12:18:58;15.88;;;11.25;;
45326;SDS011;31062;49.678;24.560;2023-04-08T12:21:44;15.00;;;10.82;;
45326;SDS011;31062;49.678;24.560;2023-04-08T12:24:30;17.83;;;12.15;;
45326;SDS011;31062;49.678;24.560;2023-04-08T12:27:15;27.40;;;15.65;;
45326;SDS011;31062;49.678;24.560;2023-04-08T12:30:01;11.25;;;8.98;;
45326;SDS011;31062;49.678;24.560;2023-04-08T12:32:48;11.27;;;8.88;;
45326;SDS011;31062;49.678;24.560;2023-04-08T12:35:34;10.10;;;8.20;;
45326;SDS011;31062;49.678;24.560;2023-04-08T12:38:20;19.85;;;12.98;;
45326;SDS011;31062;49.678;24.560;2023-04-08T12:41:06;29.27;;;17.35;;
45326;SDS011;31062;49.678;24.560;2023-04-08T12:43:52;11.35;;;8.07;;
45326;SDS011;31062;49.678;24.560;2023-04-08T12:46:37;13.07;;;9.70;;
45326;SDS011;31062;49.678;24.560;2023-04-08T12:49:24;43.38;;;24.45;;
45326;SDS011;31062;49.678;24.560;2023-04-08T12:52:10;10.55;;;9.45;;
45326;SDS011;31062;49.678;24.560;2023-04-08T12:54:56;20.90;;;14.25;;
45326;SDS011;31062;49.678;24.560;2023-04-08T12:57:41;12.70;;;8.55;;
45326;SDS011;31062;49.678;24.560;2023-04-08T13:00:27;13.63;;;8.18;;
45326;SDS011;31062;49.678;24.560;2023-04-08T13:03:13;15.93;;;8.10;;
45326;SDS011;31062;49.678;24.560;2023-04-08T13:06:01;15.27;;;10.55;;
45326;SDS011;31062;49.678;24.560;2023-04-08T13:08:47;10.52;;;8.63;;
45326;SDS011;31062;49.678;24.560;2023-04-08T13:11:34;14.10;;;8.70;;
45326;SDS011;31062;49.678;24.560;2023-04-08T13:14:21;13.60;;;9.30;;
45326;SDS011;31062;49.678;24.560;2023-04-08T13:17:09;11.32;;;7.22;;
45326;SDS011;31062;49.678;24.560;2023-04-08T13:19:55;16.73;;;11.57;;
45326;SDS011;31062;49.678;24.560;2023-04-08T13:22:41;18.75;;;8.15;;
45326;SDS011;31062;49.678;24.560;2023-04-08T13:25:28;12.38;;;8.88;;
45326;SDS011;31062;49.678;24.560;2023-04-08T13:28:14;11.85;;;8.30;;
45326;SDS011;31062;49.678;24.560;2023-04-08T13:30:59;15.93;;;9.73;;
45326;SDS011;31062;49.678;24.560;2023-04-08T13:33:45;12.50;;;7.72;;
45326;SDS011;31062;49.678;24.560;2023-04-08T13:36:31;10.13;;;6.72;;
45326;SDS011;31062;49.678;24.560;2023-04-08T13:39:17;9.30;;;6.78;;
45326;SDS011;31062;49.678;24.560;2023-04-08T13:42:02;11.60;;;9.38;;
45326;SDS011;31062;49.678;24.560;2023-04-08T13:44:48;14.75;;;9.63;;
45326;SDS011;31062;49.678;24.560;2023-04-08T13:47:34;12.48;;;8.52;;
45326;SDS011;31062;49.678;24.560;2023-04-08T13:50:22;10.95;;;7.80;;
45326;SDS011;31062;49.678;24.560;2023-04-08T13:53:08;20.17;;;6.90;;
45326;SDS011;31062;49.678;24.560;2023-04-08T13:55:54;7.75;;;6.47;;
45326;SDS011;31062;49.678;24.560;2023-04-08T13:58:40;6.30;;;5.15;;
45326;SDS011;31062;49.678;24.560;2023-04-08T14:01:26;7.53;;;6.70;;
45326;SDS011;31062;49.678;24.560;2023-04-08T14:04:12;19.08;;;12.40;;
45326;SDS011;31062;49.678;24.560;2023-04-08T14:06:58;42.35;;;19.52;;
45326;SDS011;31062;49.678;24.560;2023-04-08T14:09:44;21.38;;;11.05;;
45326;SDS011;31062;49.678;24.560;2023-04-08T14:12:30;10.38;;;8.85;;
45326;SDS011;31062;49.678;24.560;2023-04-08T14:15:16;9.02;;;6.80;;
45326;SDS011;31062;49.678;24.560;2023-04-08T14:18:02;10.95;;;7.93;;
45326;SDS011;31062;49.678;24.560;2023-04-08T14:20:48;18.30;;;11.30;;
45326;SDS011;31062;49.678;24.560;2023-04-08T14:23:33;14.07;;;10.20;;
45326;SDS011;31062;49.678;24.560;2023-04-08T14:26:19;8.98;;;6.82;;
45326;SDS011;31062;49.678;24.560;2023-04-08T14:29:05;10.23;;;7.40;;
45326;SDS011;31062;49.678;24.560;2023-04-08T14:31:52;12.00;;;7.20;;
45326;SDS011;31062;49.678;24.560;2023-04-08T14:34:38;9.88;;;7.57;;
45326;SDS011;31062;49.678;24.560;2023-04-08T14:37:23;12.60;;;9.73;;
45326;SDS011;31062;49.678;24.560;2023-04-08T14:40:09;16.48;;;12.43;;
45326;SDS011;31062;49.678;24.560;2023-04-08T14:42:55;10.20;;;8.60;;
45326;SDS011;31062;49.678;24.560;2023-04-08T14:45:41;13.60;;;9.27;;
45326;SDS011;31062;49.678;24.560;2023-04-08T14:48:29;38.90;;;26.33;;
45326;SDS011;31062;49.678;24.560;2023-04-08T14:51:14;21.15;;;14.50;;
45326;SDS011;31062;49.678;24.560;2023-04-08T14:54:01;35.38;;;22.42;;
45326;SDS011;31062;49.678;24.560;2023-04-08T14:56:47;12.93;;;10.52;;
45326;SDS011;31062;49.678;24.560;2023-04-08T14:59:33;14.60;;;10.13;;
45326;SDS011;31062;49.678;24.560;2023-04-08T15:02:18;12.35;;;10.35;;
45326;SDS011;31062;49.678;24.560;2023-04-08T15:05:04;14.93;;;10.10;;
45326;SDS011;31062;49.678;24.560;2023-04-08T15:07:50;18.98;;;12.13;;
45326;SDS011;31062;49.678;24.560;2023-04-08T15:10:37;19.58;;;11.65;;
45326;SDS011;31062;49.678;24.560;2023-04-08T15:13:22;22.90;;;13.80;;
45326;SDS011;31062;49.678;24.560;2023-04-08T15:16:08;26.55;;;14.77;;
45326;SDS011;31062;49.678;24.560;2023-04-08T15:18:54;20.90;;;14.07;;
45326;SDS011;31062;49.678;24.560;2023-04-08T15:21:40;20.30;;;11.90;;
45326;SDS011;31062;49.678;24.560;2023-04-08T15:24:26;17.20;;;12.10;;
45326;SDS011;31062;49.678;24.560;2023-04-08T15:27:12;21.10;;;11.80;;
45326;SDS011;31062;49.678;24.560;2023-04-08T15:29:58;19.48;;;11.45;;
45326;SDS011;31062;49.678;24.560;2023-04-08T15:32:44;14.90;;;10.50;;
45326;SDS011;31062;49.678;24.560;2023-04-08T15:35:31;18.05;;;11.43;;
45326;SDS011;31062;49.678;24.560;2023-04-08T15:38:17;28.67;;;12.93;;
45326;SDS011;31062;49.678;24.560;2023-04-08T15:41:03;22.33;;;13.85;;
45326;SDS011;31062;49.678;24.560;2023-04-08T15:43:49;18.58;;;13.90;;
45326;SDS011;31062;49.678;24.560;2023-04-08T15:46:37;15.50;;;11.60;;
45326;SDS011;31062;49.678;24.560;2023-04-08T15:49:22;15.15;;;10.98;;
45326;SDS011;31062;49.678;24.560;2023-04-08T15:52:08;17.77;;;13.07;;
45326;SDS011;31062;49.678;24.560;2023-04-08T15:54:54;16.13;;;11.57;;
45326;SDS011;31062;49.678;24.560;2023-04-08T15:57:39;25.50;;;14.88;;
45326;SDS011;31062;49.678;24.560;2023-04-08T16:00:25;20.77;;;13.07;;
45326;SDS011;31062;49.678;24.560;2023-04-08T16:03:11;27.15;;;18.55;;
45326;SDS011;31062;49.678;24.560;2023-04-08T16:05:57;29.35;;;18.20;;
45326;SDS011;31062;49.678;24.560;2023-04-08T16:08:43;22.65;;;14.45;;
45326;SDS011;31062;49.678;24.560;2023-04-08T16:11:32;16.65;;;12.90;;
45326;SDS011;31062;49.678;24.560;2023-04-08T16:14:18;17.42;;;12.93;;
45326;SDS011;31062;49.678;24.560;2023-04-08T16:17:04;17.27;;;12.93;;
45326;SDS011;31062;49.678;24.560;2023-04-08T16:19:50;17.63;;;12.93;;
45326;SDS011;31062;49.678;24.560;2023-04-08T16:22:36;19.58;;;12.57;;
45326;SDS011;31062;49.678;24.560;2023-04-08T16:25:22;19.17;;;12.02;;
45326;SDS011;31062;49.678;24.560;2023-04-08T16:28:12;16.83;;;10.90;;
45326;SDS011;31062;49.678;24.560;2023-04-08T16:30:58;20.35;;;11.25;;
45326;SDS011;31062;49.678;24.560;2023-04-08T16:33:44;17.38;;;11.05;;
45326;SDS011;31062;49.678;24.560;2023-04-08T16:36:29;17.92;;;11.48;;